sensor_id;sensor_type;location;lat;lon;timestamp;temperature;humidity
17172;DHT22;8701;50.150;8.756;2023-08-08T00:01:32;14.70;99.90
17172;DHT22;8701;50.150;8.756;2023-08-08T00:05:36;14.70;99.90
17172;DHT22;8701;50.150;8.756;2023-08-08T00:09:38;14.60;99.90
17172;DHT22;8701;50.150;8.756;2023-08-08T00:13:41;14.60;99.90
17172;DHT22;8701;50.150;8.756;2023-08-08T00:17:43;14.60;99.90
17172;DHT22;8701;50.150;8.756;2023-08-08T00:21:46;14.60;99.90
17172;DHT22;8701;50.150;8.756;2023-08-08T00:25:49;14.60;99.90
17172;DHT22;8701;50.150;8.756;2023-08-08T00:29:52;14.60;99.90
17172;DHT22;8701;50.150;8.756;2023-08-08T00:33:55;14.60;99.90
17172;DHT22;8701;50.150;8.756;2023-08-08T00:37:59;14.50;99.90
17172;DHT22;8701;50.150;8.756;2023-08-08T00:42:02;14.50;99.90
17172;DHT22;8701;50.150;8.756;2023-08-08T00:46:04;14.60;99.90
17172;DHT22;8701;50.150;8.756;2023-08-08T00:50:08;14.60;99.90
17172;DHT22;8701;50.150;8.756;2023-08-08T00:54:13;14.60;99.90
17172;DHT22;8701;50.150;8.756;2023-08-08T00:58:16;14.60;99.90
17172;DHT22;8701;50.150;8.756;2023-08-08T01:02:19;14.60;99.90
17172;DHT22;8701;50.150;8.756;2023-08-08T01:06:26;14.60;99.90
17172;DHT22;8701;50.150;8.756;2023-08-08T01:10:33;14.60;99.90
17172;DHT22;8701;50.150;8.756;2023-08-08T01:14:37;14.60;99.90
17172;DHT22;8701;50.150;8.756;2023-08-08T01:18:41;14.50;99.90
17172;DHT22;8701;50.150;8.756;2023-08-08T01:22:50;14.50;99.90
17172;DHT22;8701;50.150;8.756;2023-08-08T01:26:59;14.50;99.90
17172;DHT22;8701;50.150;8.756;2023-08-08T01:31:02;14.40;99.90
17172;DHT22;8701;50.150;8.756;2023-08-08T01:35:05;14.40;99.90
17172;DHT22;8701;50.150;8.756;2023-08-08T01:39:17;14.40;99.90
17172;DHT22;8701;50.150;8.756;2023-08-08T01:43:21;14.40;99.90
17172;DHT22;8701;50.150;8.756;2023-08-08T01:47:23;14.40;99.90
17172;DHT22;8701;50.150;8.756;2023-08-08T01:51:26;14.30;99.90
17172;DHT22;8701;50.150;8.756;2023-08-08T01:55:29;14.30;99.90
17172;DHT22;8701;50.150;8.756;2023-08-08T01:59:33;14.20;99.90
17172;DHT22;8701;50.150;8.756;2023-08-08T02:03:35;14.10;99.90
17172;DHT22;8701;50.150;8.756;2023-08-08T02:07:39;14.10;99.90
17172;DHT22;8701;50.150;8.756;2023-08-08T02:11:41;14.00;99.90
17172;DHT22;8701;50.150;8.756;2023-08-08T02:15:45;14.00;99.90
17172;DHT22;8701;50.150;8.756;2023-08-08T02:19:47;14.00;99.90
17172;DHT22;8701;50.150;8.756;2023-08-08T02:23:49;13.90;99.90
17172;DHT22;8701;50.150;8.756;2023-08-08T02:27:52;13.90;99.90
17172;DHT22;8701;50.150;8.756;2023-08-08T02:31:55;13.80;99.90
17172;DHT22;8701;50.150;8.756;2023-08-08T02:36:00;13.70;99.90
17172;DHT22;8701;50.150;8.756;2023-08-08T02:40:02;13.60;99.90
17172;DHT22;8701;50.150;8.756;2023-08-08T02:44:06;13.60;99.90
17172;DHT22;8701;50.150;8.756;2023-08-08T02:48:10;13.50;99.90
17172;DHT22;8701;50.150;8.756;2023-08-08T02:52:13;13.50;99.90
17172;DHT22;8701;50.150;8.756;2023-08-08T02:56:15;13.50;99.90
17172;DHT22;8701;50.150;8.756;2023-08-08T03:00:18;13.40;99.90
17172;DHT22;8701;50.150;8.756;2023-08-08T03:04:25;13.40;99.90
17172;DHT22;8701;50.150;8.756;2023-08-08T03:08:27;13.40;99.90
17172;DHT22;8701;50.150;8.756;2023-08-08T03:12:31;13.50;99.90
17172;DHT22;8701;50.150;8.756;2023-08-08T03:16:35;13.40;99.90
17172;DHT22;8701;50.150;8.756;2023-08-08T03:20:39;13.40;99.90
17172;DHT22;8701;50.150;8.756;2023-08-08T03:24:43;13.40;99.90
17172;DHT22;8701;50.150;8.756;2023-08-08T03:28:46;13.40;99.90
17172;DHT22;8701;50.150;8.756;2023-08-08T03:32:53;13.30;99.90
17172;DHT22;8701;50.150;8.756;2023-08-08T03:36:57;13.30;99.90
17172;DHT22;8701;50.150;8.756;2023-08-08T03:41:00;13.20;99.90
17172;DHT22;8701;50.150;8.756;2023-08-08T03:45:02;13.20;99.90
17172;DHT22;8701;50.150;8.756;2023-08-08T03:49:05;13.20;99.90
17172;DHT22;8701;50.150;8.756;2023-08-08T03:53:08;13.10;99.90
17172;DHT22;8701;50.150;8.756;2023-08-08T03:57:11;13.10;99.90
17172;DHT22;8701;50.150;8.756;2023-08-08T04:01:13;13.10;99.90
17172;DHT22;8701;50.150;8.756;2023-08-08T04:05:16;13.10;99.90
17172;DHT22;8701;50.150;8.756;2023-08-08T04:09:19;13.10;99.90
17172;DHT22;8701;50.150;8.756;2023-08-08T04:13:21;13.10;99.90
17172;DHT22;8701;50.150;8.756;2023-08-08T04:17:24;13.10;99.90
17172;DHT22;8701;50.150;8.756;2023-08-08T04:21:26;13.10;99.90
17172;DHT22;8701;50.150;8.756;2023-08-08T04:25:31;13.10;99.90
17172;DHT22;8701;50.150;8.756;2023-08-08T04:29:33;13.10;99.90
17172;DHT22;8701;50.150;8.756;2023-08-08T04:33:35;13.10;99.90
17172;DHT22;8701;50.150;8.756;2023-08-08T04:37:37;13.20;99.90
17172;DHT22;8701;50.150;8.756;2023-08-08T04:41:41;13.20;99.90
17172;DHT22;8701;50.150;8.756;2023-08-08T04:45:43;13.20;99.90
17172;DHT22;8701;50.150;8.756;2023-08-08T04:49:46;13.20;99.90
17172;DHT22;8701;50.150;8.756;2023-08-08T04:53:48;13.20;99.90
17172;DHT22;8701;50.150;8.756;2023-08-08T04:57:51;13.20;99.90
17172;DHT22;8701;50.150;8.756;2023-08-08T05:01:53;13.30;99.90
17172;DHT22;8701;50.150;8.756;2023-08-08T05:05:56;13.30;99.90
17172;DHT22;8701;50.150;8.756;2023-08-08T05:09:59;13.30;99.90
17172;DHT22;8701;50.150;8.756;2023-08-08T05:14:03;13.30;99.90
17172;DHT22;8701;50.150;8.756;2023-08-08T05:18:05;13.40;99.90
17172;DHT22;8701;50.150;8.756;2023-08-08T05:22:07;13.30;99.90
17172;DHT22;8701;50.150;8.756;2023-08-08T05:26:10;13.40;99.90
17172;DHT22;8701;50.150;8.756;2023-08-08T05:30:13;13.50;99.90
17172;DHT22;8701;50.150;8.756;2023-08-08T05:34:16;13.50;99.90
17172;DHT22;8701;50.150;8.756;2023-08-08T05:38:18;13.50;99.90
17172;DHT22;8701;50.150;8.756;2023-08-08T05:42:20;13.60;99.90
17172;DHT22;8701;50.150;8.756;2023-08-08T05:46:24;13.60;99.90
17172;DHT22;8701;50.150;8.756;2023-08-08T05:50:26;13.70;99.90
17172;DHT22;8701;50.150;8.756;2023-08-08T05:54:29;13.80;99.90
17172;DHT22;8701;50.150;8.756;2023-08-08T05:58:31;14.00;99.90
17172;DHT22;8701;50.150;8.756;2023-08-08T06:02:34;14.00;99.90
17172;DHT22;8701;50.150;8.756;2023-08-08T06:06:36;14.10;99.90
17172;DHT22;8701;50.150;8.756;2023-08-08T06:10:39;14.20;99.90
17172;DHT22;8701;50.150;8.756;2023-08-08T06:14:41;14.30;99.90
17172;DHT22;8701;50.150;8.756;2023-08-08T06:18:44;14.40;99.90
17172;DHT22;8701;50.150;8.756;2023-08-08T06:22:47;14.50;99.90
17172;DHT22;8701;50.150;8.756;2023-08-08T06:26:49;14.50;99.90
17172;DHT22;8701;50.150;8.756;2023-08-08T06:30:52;14.60;99.90
17172;DHT22;8701;50.150;8.756;2023-08-08T06:34:55;14.80;99.90
17172;DHT22;8701;50.150;8.756;2023-08-08T06:38:58;14.80;99.90
17172;DHT22;8701;50.150;8.756;2023-08-08T06:43:00;14.90;99.90
17172;DHT22;8701;50.150;8.756;2023-08-08T06:47:03;15.00;99.90
17172;DHT22;8701;50.150;8.756;2023-08-08T06:51:06;15.10;99.90
17172;DHT22;8701;50.150;8.756;2023-08-08T06:55:09;15.30;99.90
17172;DHT22;8701;50.150;8.756;2023-08-08T06:59:12;15.40;99.90
17172;DHT22;8701;50.150;8.756;2023-08-08T07:03:14;15.50;99.90
17172;DHT22;8701;50.150;8.756;2023-08-08T07:07:18;15.70;99.90
17172;DHT22;8701;50.150;8.756;2023-08-08T07:11:20;15.90;99.90
17172;DHT22;8701;50.150;8.756;2023-08-08T07:15:23;16.10;99.90
17172;DHT22;8701;50.150;8.756;2023-08-08T07:19:25;16.20;99.90
17172;DHT22;8701;50.150;8.756;2023-08-08T07:23:30;16.20;99.90
17172;DHT22;8701;50.150;8.756;2023-08-08T07:27:32;16.20;99.90
17172;DHT22;8701;50.150;8.756;2023-08-08T07:31:34;16.20;99.90
17172;DHT22;8701;50.150;8.756;2023-08-08T07:35:36;16.40;99.90
17172;DHT22;8701;50.150;8.756;2023-08-08T07:39:40;16.60;99.90
17172;DHT22;8701;50.150;8.756;2023-08-08T07:43:42;16.80;99.90
17172;DHT22;8701;50.150;8.756;2023-08-08T07:47:44;17.00;99.90
17172;DHT22;8701;50.150;8.756;2023-08-08T07:51:47;17.40;99.90
17172;DHT22;8701;50.150;8.756;2023-08-08T07:55:50;18.10;99.90
17172;DHT22;8701;50.150;8.756;2023-08-08T07:59:53;19.80;99.90
17172;DHT22;8701;50.150;8.756;2023-08-08T08:03:55;20.40;99.90
17172;DHT22;8701;50.150;8.756;2023-08-08T08:07:57;20.30;99.90
17172;DHT22;8701;50.150;8.756;2023-08-08T08:12:01;20.00;99.90
17172;DHT22;8701;50.150;8.756;2023-08-08T08:16:03;19.80;99.90
17172;DHT22;8701;50.150;8.756;2023-08-08T08:20:06;20.20;99.90
17172;DHT22;8701;50.150;8.756;2023-08-08T08:24:12;20.10;99.90
17172;DHT22;8701;50.150;8.756;2023-08-08T08:28:16;19.60;99.90
17172;DHT22;8701;50.150;8.756;2023-08-08T08:32:19;19.30;99.90
17172;DHT22;8701;50.150;8.756;2023-08-08T08:36:21;19.80;99.90
17172;DHT22;8701;50.150;8.756;2023-08-08T08:40:23;19.90;99.90
17172;DHT22;8701;50.150;8.756;2023-08-08T08:44:28;21.40;99.90
17172;DHT22;8701;50.150;8.756;2023-08-08T08:48:32;22.00;99.90
17172;DHT22;8701;50.150;8.756;2023-08-08T08:52:34;21.70;99.90
17172;DHT22;8701;50.150;8.756;2023-08-08T08:56:36;21.20;99.90
17172;DHT22;8701;50.150;8.756;2023-08-08T09:00:40;21.20;99.90
17172;DHT22;8701;50.150;8.756;2023-08-08T09:04:44;21.40;99.90
17172;DHT22;8701;50.150;8.756;2023-08-08T09:08:47;21.20;99.90
17172;DHT22;8701;50.150;8.756;2023-08-08T09:12:49;21.00;99.90
17172;DHT22;8701;50.150;8.756;2023-08-08T09:16:53;20.90;99.90
17172;DHT22;8701;50.150;8.756;2023-08-08T09:20:57;21.10;99.90
17172;DHT22;8701;50.150;8.756;2023-08-08T09:25:01;22.60;99.90
17172;DHT22;8701;50.150;8.756;2023-08-08T09:29:04;24.20;99.90
17172;DHT22;8701;50.150;8.756;2023-08-08T09:33:08;25.20;99.90
17172;DHT22;8701;50.150;8.756;2023-08-08T09:37:11;25.40;99.90
17172;DHT22;8701;50.150;8.756;2023-08-08T09:41:14;24.90;99.90
17172;DHT22;8701;50.150;8.756;2023-08-08T09:45:16;23.90;99.90
17172;DHT22;8701;50.150;8.756;2023-08-08T09:49:21;23.60;99.90
17172;DHT22;8701;50.150;8.756;2023-08-08T09:53:24;23.50;99.90
17172;DHT22;8701;50.150;8.756;2023-08-08T09:57:26;23.50;99.90
17172;DHT22;8701;50.150;8.756;2023-08-08T10:01:29;24.10;99.90
17172;DHT22;8701;50.150;8.756;2023-08-08T10:05:33;24.90;99.90
17172;DHT22;8701;50.150;8.756;2023-08-08T10:09:36;25.30;99.90
17172;DHT22;8701;50.150;8.756;2023-08-08T10:13:47;25.20;99.90
17172;DHT22;8701;50.150;8.756;2023-08-08T10:17:53;25.20;99.90
17172;DHT22;8701;50.150;8.756;2023-08-08T10:21:59;24.40;99.90
17172;DHT22;8701;50.150;8.756;2023-08-08T10:26:01;24.70;99.90
17172;DHT22;8701;50.150;8.756;2023-08-08T10:30:05;25.10;99.90
17172;DHT22;8701;50.150;8.756;2023-08-08T10:34:10;25.90;99.90
17172;DHT22;8701;50.150;8.756;2023-08-08T10:38:14;25.40;99.90
17172;DHT22;8701;50.150;8.756;2023-08-08T10:42:18;25.40;99.90
17172;DHT22;8701;50.150;8.756;2023-08-08T10:46:26;25.10;99.90
17172;DHT22;8701;50.150;8.756;2023-08-08T10:50:30;24.90;99.90
17172;DHT22;8701;50.150;8.756;2023-08-08T10:54:34;25.10;99.90
17172;DHT22;8701;50.150;8.756;2023-08-08T10:58:38;24.70;99.90
17172;DHT22;8701;50.150;8.756;2023-08-08T11:02:41;24.10;99.90
17172;DHT22;8701;50.150;8.756;2023-08-08T11:06:44;23.60;99.90
17172;DHT22;8701;50.150;8.756;2023-08-08T11:10:51;23.70;99.90
17172;DHT22;8701;50.150;8.756;2023-08-08T11:14:54;23.70;99.90
17172;DHT22;8701;50.150;8.756;2023-08-08T11:18:57;23.90;99.90
17172;DHT22;8701;50.150;8.756;2023-08-08T11:23:00;24.00;99.90
17172;DHT22;8701;50.150;8.756;2023-08-08T11:27:04;23.70;99.90
17172;DHT22;8701;50.150;8.756;2023-08-08T11:31:07;23.60;99.90
17172;DHT22;8701;50.150;8.756;2023-08-08T11:35:09;23.60;99.90
17172;DHT22;8701;50.150;8.756;2023-08-08T11:39:12;23.40;99.90
17172;DHT22;8701;50.150;8.756;2023-08-08T11:43:16;23.10;99.90
17172;DHT22;8701;50.150;8.756;2023-08-08T11:47:24;23.10;99.90
17172;DHT22;8701;50.150;8.756;2023-08-08T11:51:28;23.20;99.90
17172;DHT22;8701;50.150;8.756;2023-08-08T11:55:30;23.30;99.90
17172;DHT22;8701;50.150;8.756;2023-08-08T11:59:35;23.20;99.90
17172;DHT22;8701;50.150;8.756;2023-08-08T12:03:38;23.40;99.90
17172;DHT22;8701;50.150;8.756;2023-08-08T12:07:41;23.40;99.90
17172;DHT22;8701;50.150;8.756;2023-08-08T12:11:43;23.30;99.90
17172;DHT22;8701;50.150;8.756;2023-08-08T12:15:49;23.60;99.90
17172;DHT22;8701;50.150;8.756;2023-08-08T12:19:51;23.60;99.90
17172;DHT22;8701;50.150;8.756;2023-08-08T12:23:53;23.50;99.90
17172;DHT22;8701;50.150;8.756;2023-08-08T12:27:56;23.60;99.90
17172;DHT22;8701;50.150;8.756;2023-08-08T12:31:59;23.90;99.90
17172;DHT22;8701;50.150;8.756;2023-08-08T12:36:03;24.30;99.90
17172;DHT22;8701;50.150;8.756;2023-08-08T12:40:07;24.20;99.90
17172;DHT22;8701;50.150;8.756;2023-08-08T12:44:10;24.00;99.90
17172;DHT22;8701;50.150;8.756;2023-08-08T12:48:14;24.00;99.90
17172;DHT22;8701;50.150;8.756;2023-08-08T12:52:16;24.00;99.90
17172;DHT22;8701;50.150;8.756;2023-08-08T12:56:18;23.60;99.90
17172;DHT22;8701;50.150;8.756;2023-08-08T13:00:20;23.30;99.90
17172;DHT22;8701;50.150;8.756;2023-08-08T13:04:24;23.20;99.90
17172;DHT22;8701;50.150;8.756;2023-08-08T13:08:34;23.20;99.90
17172;DHT22;8701;50.150;8.756;2023-08-08T13:12:37;23.30;99.90
17172;DHT22;8701;50.150;8.756;2023-08-08T13:16:39;23.10;99.90
17172;DHT22;8701;50.150;8.756;2023-08-08T13:20:41;22.80;99.90
17172;DHT22;8701;50.150;8.756;2023-08-08T13:24:45;22.90;99.90
17172;DHT22;8701;50.150;8.756;2023-08-08T13:28:47;22.80;99.90
17172;DHT22;8701;50.150;8.756;2023-08-08T13:32:50;22.50;99.90
17172;DHT22;8701;50.150;8.756;2023-08-08T13:36:52;22.30;99.90
17172;DHT22;8701;50.150;8.756;2023-08-08T13:40:57;22.00;99.90
17172;DHT22;8701;50.150;8.756;2023-08-08T13:45:01;22.00;99.90
17172;DHT22;8701;50.150;8.756;2023-08-08T13:49:03;21.80;99.90
17172;DHT22;8701;50.150;8.756;2023-08-08T13:53:05;21.70;99.90
17172;DHT22;8701;50.150;8.756;2023-08-08T13:57:09;21.60;99.90
17172;DHT22;8701;50.150;8.756;2023-08-08T14:01:11;21.70;99.90
17172;DHT22;8701;50.150;8.756;2023-08-08T14:05:13;21.80;99.90
17172;DHT22;8701;50.150;8.756;2023-08-08T14:09:16;21.90;99.90
17172;DHT22;8701;50.150;8.756;2023-08-08T14:13:19;21.80;99.90
17172;DHT22;8701;50.150;8.756;2023-08-08T14:17:22;21.70;99.90
17172;DHT22;8701;50.150;8.756;2023-08-08T14:21:24;21.70;99.90
17172;DHT22;8701;50.150;8.756;2023-08-08T14:25:27;21.60;99.90
17172;DHT22;8701;50.150;8.756;2023-08-08T14:29:31;21.40;99.90
17172;DHT22;8701;50.150;8.756;2023-08-08T14:33:34;21.30;99.90
17172;DHT22;8701;50.150;8.756;2023-08-08T14:37:36;21.20;99.90
17172;DHT22;8701;50.150;8.756;2023-08-08T14:41:38;21.10;99.90
17172;DHT22;8701;50.150;8.756;2023-08-08T14:45:42;21.10;99.90
17172;DHT22;8701;50.150;8.756;2023-08-08T14:49:44;21.10;99.90
17172;DHT22;8701;50.150;8.756;2023-08-08T14:53:46;21.10;99.90
17172;DHT22;8701;50.150;8.756;2023-08-08T14:57:48;21.20;99.90
17172;DHT22;8701;50.150;8.756;2023-08-08T15:01:52;21.10;99.90
17172;DHT22;8701;50.150;8.756;2023-08-08T15:05:54;21.00;99.90
17172;DHT22;8701;50.150;8.756;2023-08-08T15:09:56;20.80;99.90
17172;DHT22;8701;50.150;8.756;2023-08-08T15:13:58;20.70;99.90
17172;DHT22;8701;50.150;8.756;2023-08-08T15:18:02;20.60;99.90
17172;DHT22;8701;50.150;8.756;2023-08-08T15:22:04;20.60;99.90
17172;DHT22;8701;50.150;8.756;2023-08-08T15:26:07;20.60;99.90
17172;DHT22;8701;50.150;8.756;2023-08-08T15:30:10;20.50;99.90
17172;DHT22;8701;50.150;8.756;2023-08-08T15:34:14;20.40;99.90
17172;DHT22;8701;50.150;8.756;2023-08-08T15:38:16;20.30;99.90
17172;DHT22;8701;50.150;8.756;2023-08-08T15:42:18;20.30;99.90
17172;DHT22;8701;50.150;8.756;2023-08-08T15:46:20;20.30;99.90
17172;DHT22;8701;50.150;8.756;2023-08-08T15:50:24;20.30;99.90
17172;DHT22;8701;50.150;8.756;2023-08-08T15:54:26;20.20;99.90
17172;DHT22;8701;50.150;8.756;2023-08-08T15:58:29;20.30;99.90
17172;DHT22;8701;50.150;8.756;2023-08-08T16:02:31;20.30;99.90
17172;DHT22;8701;50.150;8.756;2023-08-08T16:06:34;20.30;99.90
17172;DHT22;8701;50.150;8.756;2023-08-08T16:10:36;20.20;99.90
17172;DHT22;8701;50.150;8.756;2023-08-08T16:14:39;20.20;99.90
17172;DHT22;8701;50.150;8.756;2023-08-08T16:18:41;20.30;99.90
17172;DHT22;8701;50.150;8.756;2023-08-08T16:22:44;20.40;99.90
17172;DHT22;8701;50.150;8.756;2023-08-08T16:26:47;20.40;99.90
17172;DHT22;8701;50.150;8.756;2023-08-08T16:30:49;20.40;99.90
17172;DHT22;8701;50.150;8.756;2023-08-08T16:34:52;20.40;99.90
17172;DHT22;8701;50.150;8.756;2023-08-08T16:38:55;20.20;99.90
17172;DHT22;8701;50.150;8.756;2023-08-08T16:42:57;20.10;99.90
17172;DHT22;8701;50.150;8.756;2023-08-08T16:47:00;20.00;99.90
17172;DHT22;8701;50.150;8.756;2023-08-08T16:51:02;20.00;99.90
17172;DHT22;8701;50.150;8.756;2023-08-08T16:55:06;20.00;99.90
17172;DHT22;8701;50.150;8.756;2023-08-08T16:59:11;20.00;99.90
17172;DHT22;8701;50.150;8.756;2023-08-08T17:03:13;20.00;99.90
17172;DHT22;8701;50.150;8.756;2023-08-08T17:07:17;19.90;99.90
17172;DHT22;8701;50.150;8.756;2023-08-08T17:11:21;19.80;99.90
17172;DHT22;8701;50.150;8.756;2023-08-08T17:15:23;19.80;99.90
17172;DHT22;8701;50.150;8.756;2023-08-08T17:19:25;19.80;99.90
17172;DHT22;8701;50.150;8.756;2023-08-08T17:23:27;19.80;99.90
17172;DHT22;8701;50.150;8.756;2023-08-08T17:27:31;19.80;99.90
17172;DHT22;8701;50.150;8.756;2023-08-08T17:31:36;19.70;99.90
17172;DHT22;8701;50.150;8.756;2023-08-08T17:35:38;19.70;99.90
17172;DHT22;8701;50.150;8.756;2023-08-08T17:39:40;19.70;99.90
17172;DHT22;8701;50.150;8.756;2023-08-08T17:43:44;19.70;99.90
17172;DHT22;8701;50.150;8.756;2023-08-08T17:47:46;19.70;99.90
17172;DHT22;8701;50.150;8.756;2023-08-08T17:51:48;19.70;99.90
17172;DHT22;8701;50.150;8.756;2023-08-08T17:55:51;19.60;99.90
17172;DHT22;8701;50.150;8.756;2023-08-08T17:59:54;19.60;99.90
17172;DHT22;8701;50.150;8.756;2023-08-08T18:03:56;19.50;99.90
17172;DHT22;8701;50.150;8.756;2023-08-08T18:07:59;19.50;99.90
17172;DHT22;8701;50.150;8.756;2023-08-08T18:12:01;19.40;99.90
17172;DHT22;8701;50.150;8.756;2023-08-08T18:16:04;19.40;99.90
17172;DHT22;8701;50.150;8.756;2023-08-08T18:20:08;19.30;99.90
17172;DHT22;8701;50.150;8.756;2023-08-08T18:24:10;19.30;99.90
17172;DHT22;8701;50.150;8.756;2023-08-08T18:28:12;19.30;99.90
17172;DHT22;8701;50.150;8.756;2023-08-08T18:32:16;19.30;99.90
17172;DHT22;8701;50.150;8.756;2023-08-08T18:36:18;19.30;99.90
17172;DHT22;8701;50.150;8.756;2023-08-08T18:40:20;19.20;99.90
17172;DHT22;8701;50.150;8.756;2023-08-08T18:44:23;19.20;99.90
17172;DHT22;8701;50.150;8.756;2023-08-08T18:48:27;19.20;99.90
17172;DHT22;8701;50.150;8.756;2023-08-08T18:52:29;19.10;99.90
17172;DHT22;8701;50.150;8.756;2023-08-08T18:56:31;19.10;99.90
17172;DHT22;8701;50.150;8.756;2023-08-08T19:00:33;19.10;99.90
17172;DHT22;8701;50.150;8.756;2023-08-08T19:04:37;19.10;99.90
17172;DHT22;8701;50.150;8.756;2023-08-08T19:08:39;19.10;99.90
17172;DHT22;8701;50.150;8.756;2023-08-08T19:12:43;19.00;99.90
17172;DHT22;8701;50.150;8.756;2023-08-08T19:16:45;18.90;99.90
17172;DHT22;8701;50.150;8.756;2023-08-08T19:20:49;18.90;99.90
17172;DHT22;8701;50.150;8.756;2023-08-08T19:24:51;18.90;99.90
17172;DHT22;8701;50.150;8.756;2023-08-08T19:28:54;18.80;99.90
17172;DHT22;8701;50.150;8.756;2023-08-08T19:32:56;18.80;99.90
17172;DHT22;8701;50.150;8.756;2023-08-08T19:37:00;18.80;99.90
17172;DHT22;8701;50.150;8.756;2023-08-08T19:41:02;18.70;99.90
17172;DHT22;8701;50.150;8.756;2023-08-08T19:45:05;18.60;99.90
17172;DHT22;8701;50.150;8.756;2023-08-08T19:49:07;18.60;99.90
17172;DHT22;8701;50.150;8.756;2023-08-08T19:53:11;18.50;99.90
17172;DHT22;8701;50.150;8.756;2023-08-08T19:57:13;18.50;99.90
17172;DHT22;8701;50.150;8.756;2023-08-08T20:01:16;18.40;99.90
17172;DHT22;8701;50.150;8.756;2023-08-08T20:05:18;18.40;99.90
17172;DHT22;8701;50.150;8.756;2023-08-08T20:09:22;18.40;99.90
17172;DHT22;8701;50.150;8.756;2023-08-08T20:13:24;18.40;99.90
17172;DHT22;8701;50.150;8.756;2023-08-08T20:17:27;18.30;99.90
17172;DHT22;8701;50.150;8.756;2023-08-08T20:21:30;18.30;99.90
17172;DHT22;8701;50.150;8.756;2023-08-08T20:25:33;18.30;99.90
17172;DHT22;8701;50.150;8.756;2023-08-08T20:29:38;18.20;99.90
17172;DHT22;8701;50.150;8.756;2023-08-08T20:33:41;18.20;99.90
17172;DHT22;8701;50.150;8.756;2023-08-08T20:37:46;18.10;99.90
17172;DHT22;8701;50.150;8.756;2023-08-08T20:41:49;18.10;99.90
17172;DHT22;8701;50.150;8.756;2023-08-08T20:45:52;18.10;99.90
17172;DHT22;8701;50.150;8.756;2023-08-08T20:49:54;18.10;99.90
17172;DHT22;8701;50.150;8.756;2023-08-08T20:53:56;18.10;99.90
17172;DHT22;8701;50.150;8.756;2023-08-08T20:58:00;18.10;99.90
17172;DHT22;8701;50.150;8.756;2023-08-08T21:02:06;18.10;99.90
17172;DHT22;8701;50.150;8.756;2023-08-08T21:06:09;18.10;99.90
17172;DHT22;8701;50.150;8.756;2023-08-08T21:10:11;18.00;99.90
17172;DHT22;8701;50.150;8.756;2023-08-08T21:14:15;18.00;99.90
17172;DHT22;8701;50.150;8.756;2023-08-08T21:18:17;18.00;99.90
17172;DHT22;8701;50.150;8.756;2023-08-08T21:22:19;18.10;99.90
17172;DHT22;8701;50.150;8.756;2023-08-08T21:26:23;18.10;99.90
17172;DHT22;8701;50.150;8.756;2023-08-08T21:30:27;18.00;99.90
17172;DHT22;8701;50.150;8.756;2023-08-08T21:34:29;18.00;99.90
17172;DHT22;8701;50.150;8.756;2023-08-08T21:38:32;18.00;99.90
17172;DHT22;8701;50.150;8.756;2023-08-08T21:42:34;18.00;99.90
17172;DHT22;8701;50.150;8.756;2023-08-08T21:46:37;18.00;99.90
17172;DHT22;8701;50.150;8.756;2023-08-08T21:50:40;18.00;99.90
17172;DHT22;8701;50.150;8.756;2023-08-08T21:54:42;17.90;99.90
17172;DHT22;8701;50.150;8.756;2023-08-08T21:58:44;17.90;99.90
17172;DHT22;8701;50.150;8.756;2023-08-08T22:02:48;17.70;99.90
17172;DHT22;8701;50.150;8.756;2023-08-08T22:06:50;17.60;99.90
17172;DHT22;8701;50.150;8.756;2023-08-08T22:10:53;17.50;99.90
17172;DHT22;8701;50.150;8.756;2023-08-08T22:14:55;17.40;99.90
17172;DHT22;8701;50.150;8.756;2023-08-08T22:18:58;17.30;99.90
17172;DHT22;8701;50.150;8.756;2023-08-08T22:23:01;17.30;99.90
17172;DHT22;8701;50.150;8.756;2023-08-08T22:27:03;17.20;99.90
17172;DHT22;8701;50.150;8.756;2023-08-08T22:31:06;17.10;99.90
17172;DHT22;8701;50.150;8.756;2023-08-08T22:35:09;17.00;99.90
17172;DHT22;8701;50.150;8.756;2023-08-08T22:39:11;17.00;99.90
17172;DHT22;8701;50.150;8.756;2023-08-08T22:43:14;17.00;99.90
17172;DHT22;8701;50.150;8.756;2023-08-08T22:47:16;16.90;99.90
17172;DHT22;8701;50.150;8.756;2023-08-08T22:51:20;16.90;99.90
17172;DHT22;8701;50.150;8.756;2023-08-08T22:55:23;16.80;99.90
17172;DHT22;8701;50.150;8.756;2023-08-08T22:59:25;16.80;99.90
17172;DHT22;8701;50.150;8.756;2023-08-08T23:03:27;16.80;99.90
17172;DHT22;8701;50.150;8.756;2023-08-08T23:07:30;16.80;99.90
17172;DHT22;8701;50.150;8.756;2023-08-08T23:11:33;16.80;99.90
17172;DHT22;8701;50.150;8.756;2023-08-08T23:15:35;16.80;99.90
17172;DHT22;8701;50.150;8.756;2023-08-08T23:19:37;16.80;99.90
17172;DHT22;8701;50.150;8.756;2023-08-08T23:23:41;16.80;99.90
17172;DHT22;8701;50.150;8.756;2023-08-08T23:27:43;16.80;99.90
17172;DHT22;8701;50.150;8.756;2023-08-08T23:31:45;16.80;99.90
17172;DHT22;8701;50.150;8.756;2023-08-08T23:35:50;16.70;99.90
17172;DHT22;8701;50.150;8.756;2023-08-08T23:39:53;16.70;99.90
17172;DHT22;8701;50.150;8.756;2023-08-08T23:43:55;16.70;99.90
17172;DHT22;8701;50.150;8.756;2023-08-08T23:47:58;16.60;99.90
17172;DHT22;8701;50.150;8.756;2023-08-08T23:52:02;16.60;99.90
17172;DHT22;8701;50.150;8.756;2023-08-08T23:56:05;16.50;99.90
